Amqui, Quebec

6:11 PM AST on November 26, 2014 (GMT -0400)
Camping et marina | Change Station
CLOSE
Current Station
Personal Weather Station
Location: Val-Brillant, QUEBEC
Elevation: 510 ft
Nearby Weather Stations

Elev 510 ft 48.53 °N, 67.55 °W | Updated 16 seconds ago

Overcast
Overcast
27.0 °F
Feels Like 20 °F
N
5.8
Wind Variable Wind from West
Gusts 6.3 mph

Tomorrow is forecast to be nearly the same temperature as today.

Today
High -- | Low -- °F
--% Chance of Precip.
Yesterday
High -- | Low -- °F
Precip. -- in
7:54 AM 4:39 PM
Waxing Crescent, 23% visible
Pressure 30.25 in
Visibility 30.0 miles
Clouds Scattered Clouds 4000 ft
Overcast 7000 ft
Windchill 20 °F
Dew Point 6 °F
Humidity 41%
Rainfall 0.00 in
Snow Depth Not available.
UV 0 out of 12
Pollen Not available.
Air Quality Not available.
Flu Activity Not available.
METAR CYYY 262200Z 32008KT 30SM SCT040 OVC070 M02/M09 A3024 RMK SC3AC5 PRESRR SLP243

More Conditions Fewer Conditions

Pressure 30.25 in
Visibility 30.0 miles
Clouds Scattered Clouds 4000 ft
Overcast 7000 ft
Windchill 20 °F
Dew Point 6 °F
Humidity 41%
Rainfall 0.00 in
Snow Depth Not available.
UV 0 out of 12
Pollen Not available.
Air Quality Not available.
Flu Activity Not available.
METAR CYYY 262200Z 32008KT 30SM SCT040 OVC070 M02/M09 A3024 RMK SC3AC5 PRESRR SLP243

More Conditions Fewer Conditions

10-Day Weather Forecast

Almanac

Astronomy

Nov. 26, 2014 Rise Set
Actual Time
Civil Twilight
Nautical Twilight
Astronomical Twilight
Moon
Length of Visible Light
Length of Day
Tomorrow will be .
, % of the Moon is Illuminated

Today's Extremes

Country Highs Country Lows

Community

WunderPhotos

Upload Photos

1,773,888 photos uploaded!

WunderBlogs® & News

Nearby

Air Quality

  Air Quality AQ Index Pollutant
Not available.

Snow Depth

Station Depth Elevation

Earthquake Activity

City Distance Mag. Time & Date
Minimum magnitude displayed is 2.5.

Coastal Water Temperatures

Place Temperature

Nearby Weather Stations